Time;durP1;ratioP1;P1;durP2;ratioP2;P2;SDS_P1;SDS_P2;PMS_P1;PMS_P2;Temp;Humidity;BMP_temperature;BMP_pressure;BME280_temperature;BME280_humidity;BME280_pressure;Samples;Min_cycle;Max_cycle;Signal;HPM_P1;HPM_P2
2023/03/20 00:01:29;;;;;;;0.50;0.50;;;;;;;6.89;97.89;100164.47;5048085;28;20297;-72
2023/03/20 00:03:56;;;;;;;1.13;1.13;;;;;;;6.90;97.79;100149.84;5063138;28;20022;-73
2023/03/20 00:06:23;;;;;;;0.50;0.50;;;;;;;6.71;98.05;100123.97;5047974;28;20025;-73
2023/03/20 00:08:51;;;;;;;3.80;2.45;;;;;;;6.88;97.64;100152.44;5062947;28;20080;-72
2023/03/20 00:11:29;;;;;;;0.60;0.60;;;;;;;6.82;97.96;100142.09;5062948;28;20307;-71
2023/03/20 00:14:06;;;;;;;0.50;0.50;;;;;;;6.57;97.88;100105.88;5047706;28;20047;-70
2023/03/20 00:16:35;;;;;;;2.45;2.35;;;;;;;6.73;97.85;100129.13;5047574;28;20067;-71
2023/03/20 00:19:02;;;;;;;2.38;2.28;;;;;;;6.81;98.12;100137.78;5047617;28;20083;-71
2023/03/20 00:21:28;;;;;;;2.92;2.55;;;;;;;6.84;97.89;100139.53;5047320;28;20028;-71
2023/03/20 00:23:54;;;;;;;0.80;0.80;;;;;;;6.81;97.89;100132.63;5047199;28;20033;-70
2023/03/20 00:26:25;;;;;;;0.90;0.90;;;;;;;6.78;97.60;100122.28;5047375;28;20026;-71
2023/03/20 00:28:51;;;;;;;3.13;2.93;;;;;;;6.58;97.52;100079.25;5062715;28;20478;-71
2023/03/20 00:31:16;;;;;;;2.55;2.45;;;;;;;6.81;97.43;100124.88;5047277;28;20104;-71
2023/03/20 00:33:42;;;;;;;1.05;1.05;;;;;;;6.69;97.44;100121.41;5062765;28;20034;-70
2023/03/20 00:36:08;;;;;;;1.20;1.20;;;;;;;6.53;97.29;100094.69;5047358;28;20029;-70
2023/03/20 00:38:33;;;;;;;0.80;0.80;;;;;;;6.65;97.67;100111.94;5046982;28;20568;-69
2023/03/20 00:40:59;;;;;;;0.60;0.60;;;;;;;6.66;97.57;100126.53;5047135;28;20017;-69
2023/03/20 00:43:24;;;;;;;1.08;1.08;;;;;;;6.38;97.25;100087.78;5046846;28;20022;-68
2023/03/20 00:45:50;;;;;;;2.55;1.58;;;;;;;6.56;97.41;100115.38;5047117;28;20025;-69
2023/03/20 00:48:15;;;;;;;0.60;0.60;;;;;;;6.46;97.01;100111.00;5046873;28;20022;-69
2023/03/20 00:50:41;;;;;;;2.67;2.58;;;;;;;6.46;97.10;100116.16;5045856;28;20029;-69
2023/03/20 00:53:10;;;;;;;0.50;0.50;;;;;;;6.37;97.04;100106.69;5046869;28;20039;-69
2023/03/20 00:55:36;;;;;;;0.60;0.60;;;;;;;6.32;96.83;100111.84;5047184;28;20097;-69
2023/03/20 00:58:03;;;;;;;0.88;0.88;;;;;;;6.22;96.75;100098.88;5046935;28;20052;-69
2023/03/20 01:00:42;;;;;;;2.28;2.17;;;;;;;6.22;96.85;100107.47;5046718;28;20386;-69
2023/03/20 01:03:11;;;;;;;0.60;0.60;;;;;;;6.20;96.78;100104.00;5046617;28;20029;-69
2023/03/20 01:05:37;;;;;;;1.00;1.00;;;;;;;6.18;96.85;100101.44;5046583;28;20105;-70
2023/03/20 01:08:10;;;;;;;1.25;0.82;;;;;;;6.14;97.30;100091.09;5046819;28;20022;-69
2023/03/20 01:10:36;;;;;;;0.82;0.82;;;;;;;5.95;96.98;100065.22;5046690;28;20017;-69
2023/03/20 01:13:01;;;;;;;0.75;0.55;;;;;;;5.86;96.88;100055.72;5061548;28;20124;-70
2023/03/20 01:15:31;;;;;;;0.68;0.68;;;;;;;6.06;97.07;100089.38;5046518;28;20024;-69
2023/03/20 01:17:57;;;;;;;1.63;1.52;;;;;;;6.04;96.99;100079.84;5046353;28;20050;-68
2023/03/20 01:20:25;;;;;;;3.05;2.75;;;;;;;6.00;97.17;100072.97;5046275;28;20093;-69
2023/03/20 01:22:51;;;;;;;2.08;2.03;;;;;;;5.99;97.34;100072.09;5046152;28;20029;-69
2023/03/20 01:25:17;;;;;;;5.25;3.80;;;;;;;5.99;97.23;100071.25;5045012;28;20022;-69
2023/03/20 01:27:48;;;;;;;0.60;0.60;;;;;;;5.95;97.50;100066.09;5046173;28;20025;-70
2023/03/20 01:30:28;;;;;;;2.78;2.67;;;;;;;5.95;97.43;100070.38;5046321;28;20021;-69
2023/03/20 01:32:55;;;;;;;0.40;0.40;;;;;;;5.95;97.82;100067.78;5045897;28;20283;-69
2023/03/20 01:35:23;;;;;;;2.28;2.17;;;;;;;5.95;97.97;100071.25;5046134;28;20031;-70
2023/03/20 01:37:49;;;;;;;1.80;1.63;;;;;;;5.95;97.95;100063.50;5061449;28;20033;-71
2023/03/20 01:40:27;;;;;;;2.28;2.17;;;;;;;5.99;97.90;100063.53;5045885;28;20029;-69
2023/03/20 01:42:53;;;;;;;2.05;1.95;;;;;;;5.89;98.02;100039.41;5044725;28;20111;-70
2023/03/20 01:45:24;;;;;;;0.95;0.95;;;;;;;5.99;98.21;100060.94;5045751;28;20083;-69
2023/03/20 01:47:50;;;;;;;0.80;0.80;;;;;;;5.92;98.14;100047.16;5046093;28;20049;-71
2023/03/20 01:50:31;;;;;;;8.52;3.60;;;;;;;5.99;98.30;100060.94;5045894;28;20025;-69
2023/03/20 01:53:06;;;;;;;1.35;1.35;;;;;;;5.98;98.17;100057.50;5045566;28;20051;-70
2023/03/20 01:55:32;;;;;;;0.50;0.50;;;;;;;5.95;98.06;100055.78;5045581;28;20028;-70
2023/03/20 01:58:02;;;;;;;2.17;2.08;;;;;;;5.72;98.19;100016.16;5045726;28;20029;-70
2023/03/20 02:00:27;;;;;;;2.60;2.50;;;;;;;5.97;98.40;100049.75;5060616;28;20051;-71
2023/03/20 02:02:54;;;;;;;3.88;3.67;;;;;;;5.85;98.44;100028.22;5060878;28;20021;-70
2023/03/20 02:05:21;;;;;;;2.67;1.70;;;;;;;5.98;98.35;100041.16;5045729;28;20028;-71
2023/03/20 02:07:59;;;;;;;0.60;0.60;;;;;;;5.95;98.42;100042.91;5044132;28;20027;-71
2023/03/20 02:10:25;;;;;;;3.08;2.88;;;;;;;5.99;98.22;100045.50;5045450;28;20024;-72
2023/03/20 02:12:51;;;;;;;0.52;0.52;;;;;;;5.86;98.50;100027.41;5045464;28;20030;-72
2023/03/20 02:15:17;;;;;;;0.52;0.52;;;;;;;5.83;98.39;100014.50;5045470;28;20128;-72
2023/03/20 02:17:43;;;;;;;1.00;1.00;;;;;;;5.94;98.62;100027.44;5045143;28;20057;-73
2023/03/20 02:20:32;;;;;;;0.77;0.77;;;;;;;5.94;98.90;100037.72;5045340;28;20093;-73
2023/03/20 02:23:21;;;;;;;0.52;0.52;;;;;;;5.92;99.03;100032.56;5045434;28;20029;-73
2023/03/20 02:26:24;;;;;;;2.20;2.05;;;;;;;5.97;98.73;100026.56;5023162;28;20044;-74
2023/03/20 02:28:58;;;;;;;17.95;2.38;;;;;;;5.91;98.89;100032.56;5023223;28;20026;-73
2023/03/20 02:31:48;;;;;;;1.42;1.42;;;;;;;5.86;98.80;100029.97;5023143;28;20069;-72
2023/03/20 02:34:35;;;;;;;0.47;0.47;;;;;;;5.83;98.75;100032.53;5022987;28;20088;-71
2023/03/20 02:37:19;;;;;;;0.50;0.50;;;;;;;5.80;98.79;100024.75;5023129;28;20494;-70
2023/03/20 02:40:03;;;;;;;1.30;1.30;;;;;;;5.77;98.95;100025.63;5023014;28;20037;-69
2023/03/20 02:43:04;;;;;;;0.88;0.88;;;;;;;5.76;98.74;100023.91;5022981;28;20149;-68
2023/03/20 02:45:46;;;;;;;0.50;0.50;;;;;;;5.77;98.68;100027.31;4964488;29;20483;-69
2023/03/20 02:48:29;;;;;;;0.90;0.90;;;;;;;5.73;98.81;100017.88;4964452;29;20074;-68
2023/03/20 02:51:18;;;;;;;0.68;0.68;;;;;;;5.70;98.95;100008.41;4964636;29;20145;-68
2023/03/20 02:53:55;;;;;;;1.20;1.20;;;;;;;5.61;98.83;99996.34;4964141;29;20035;-67
2023/03/20 02:56:42;;;;;;;1.45;1.35;;;;;;;5.65;98.99;100016.13;4964260;29;20039;-69
2023/03/20 02:59:20;;;;;;;2.50;2.30;;;;;;;5.62;99.09;100010.97;4948187;29;20023;-67
2023/03/20 03:01:52;;;;;;;0.95;0.95;;;;;;;5.46;99.15;99979.09;4964084;29;20140;-68
2023/03/20 03:04:23;;;;;;;0.60;0.60;;;;;;;5.36;99.13;99957.59;4948427;29;20083;-69
2023/03/20 03:06:54;;;;;;;2.92;2.83;;;;;;;5.31;98.98;99949.84;4948054;29;20035;-68
2023/03/20 03:09:26;;;;;;;0.50;0.50;;;;;;;5.54;98.99;99984.28;4964269;29;20050;-68
2023/03/20 03:12:11;;;;;;;2.30;2.17;;;;;;;5.58;99.33;99983.44;4948403;29;20761;-67
2023/03/20 03:14:47;;;;;;;0.40;0.40;;;;;;;5.48;99.31;99964.50;4952594;29;20077;-67
2023/03/20 03:17:15;;;;;;;0.50;0.50;;;;;;;5.64;99.33;99983.47;4968115;29;20078;-67
2023/03/20 03:19:46;;;;;;;0.43;0.43;;;;;;;5.54;99.21;99967.09;4968120;29;20110;-68
2023/03/20 03:22:14;;;;;;;1.60;1.50;;;;;;;5.66;99.15;99980.91;5014402;28;20064;-68
2023/03/20 03:24:45;;;;;;;0.50;0.50;;;;;;;5.65;99.38;99977.50;5048331;28;20044;-69
2023/03/20 03:27:34;;;;;;;0.47;0.47;;;;;;;5.66;99.24;99979.19;5048571;28;20025;-68
2023/03/20 03:30:02;;;;;;;0.50;0.50;;;;;;;5.66;99.42;99966.31;5048660;28;20077;-68
2023/03/20 03:32:34;;;;;;;0.50;0.50;;;;;;;5.66;99.22;99962.88;5048578;28;20029;-68
2023/03/20 03:35:02;;;;;;;0.98;0.98;;;;;;;5.41;99.29;99931.88;5048492;28;20029;-69
2023/03/20 03:37:41;;;;;;;0.95;0.95;;;;;;;5.66;99.23;99965.47;5048321;28;20105;-67
2023/03/20 03:40:16;;;;;;;1.02;1.02;;;;;;;5.67;99.18;99968.03;5048489;28;20025;-68
2023/03/20 03:42:51;;;;;;;0.80;0.80;;;;;;;5.61;99.13;99954.28;5048503;28;20025;-67
2023/03/20 03:45:34;;;;;;;1.23;1.13;;;;;;;5.64;99.19;99962.03;5047068;28;20049;-67
2023/03/20 03:48:10;;;;;;;2.45;2.35;;;;;;;5.67;98.94;99960.31;5048286;28;20049;-67
2023/03/20 03:50:47;;;;;;;0.60;0.60;;;;;;;5.69;99.06;99966.34;5048274;28;20017;-66
2023/03/20 03:53:17;;;;;;;0.60;0.60;;;;;;;5.67;99.03;99962.03;5047787;28;20029;-67
2023/03/20 03:55:48;;;;;;;0.47;0.47;;;;;;;5.69;98.93;99961.19;5047905;28;20029;-67
2023/03/20 03:58:24;;;;;;;0.50;0.50;;;;;;;5.73;99.22;99963.78;5063315;28;20381;-66
2023/03/20 04:00:53;;;;;;;0.70;0.70;;;;;;;5.73;99.26;99962.06;5048213;28;20029;-66
2023/03/20 04:03:22;;;;;;;5.25;2.95;;;;;;;5.74;99.09;99968.94;5047653;28;20025;-64
2023/03/20 04:05:53;;;;;;;0.60;0.60;;;;;;;5.65;99.45;99944.00;5047928;28;20086;-66
2023/03/20 04:08:18;;;;;;;0.77;0.77;;;;;;;5.75;99.51;99965.50;5047714;28;20482;-65
2023/03/20 04:10:44;;;;;;;1.15;1.15;;;;;;;5.66;99.47;99952.56;5047698;28;20207;-66
2023/03/20 04:13:10;;;;;;;2.95;2.78;;;;;;;5.75;99.18;99957.75;5062951;28;20498;-66
2023/03/20 04:15:37;;;;;;;0.50;0.50;;;;;;;5.68;99.22;99932.84;5047616;28;20275;-67
2023/03/20 04:18:03;;;;;;;0.50;0.50;;;;;;;5.77;99.46;99963.78;5047409;28;20049;-68
2023/03/20 04:20:28;;;;;;;0.50;0.50;;;;;;;5.78;99.57;99955.19;5047472;28;20079;-68
2023/03/20 04:22:54;;;;;;;0.50;0.50;;;;;;;5.82;99.32;99945.78;5062620;28;20025;-68
2023/03/20 04:25:22;;;;;;;0.50;0.50;;;;;;;5.79;99.55;99948.34;5047218;28;20172;-68
2023/03/20 04:27:47;;;;;;;0.40;0.40;;;;;;;5.73;99.59;99930.28;5047356;28;20017;-68
2023/03/20 04:30:13;;;;;;;0.52;0.52;;;;;;;5.80;99.60;99937.16;5047219;28;20017;-69
2023/03/20 04:32:39;;;;;;;0.50;0.50;;;;;;;5.78;99.27;99936.31;5047207;28;20048;-68
2023/03/20 04:35:05;;;;;;;1.30;1.30;;;;;;;5.71;99.46;99943.16;5047400;28;20023;-69
2023/03/20 04:37:30;;;;;;;0.50;0.50;;;;;;;5.76;99.31;99938.03;5047124;28;20041;-69
2023/03/20 04:39:56;;;;;;;0.50;0.50;;;;;;;5.54;99.48;99905.31;5047058;28;20034;-69
2023/03/20 04:42:21;;;;;;;0.40;0.40;;;;;;;5.68;98.94;99928.56;5047086;28;20026;-69
2023/03/20 04:44:46;;;;;;;0.40;0.40;;;;;;;5.68;99.40;99923.41;5046967;28;20132;-70
2023/03/20 04:47:12;;;;;;;0.40;0.40;;;;;;;5.72;99.38;99929.41;5047147;28;20044;-70
2023/03/20 04:49:37;;;;;;;0.50;0.50;;;;;;;5.75;99.22;99937.16;5047002;28;20048;-69
2023/03/20 04:52:03;;;;;;;0.73;0.73;;;;;;;5.69;99.26;99931.97;5046673;28;20067;-69
2023/03/20 04:54:28;;;;;;;0.50;0.50;;;;;;;5.73;98.99;99941.47;5046897;28;20103;-69
2023/03/20 04:56:54;;;;;;;0.40;0.40;;;;;;;5.50;99.15;99902.72;5046971;28;20021;-70
2023/03/20 04:59:19;;;;;;;0.40;0.40;;;;;;;5.68;98.85;99935.44;5046783;28;20478;-71
2023/03/20 05:01:45;;;;;;;1.02;1.00;;;;;;;5.71;99.06;99935.44;5046843;28;20482;-70
2023/03/20 05:04:10;;;;;;;0.40;0.40;;;;;;;5.70;99.07;99937.13;5045205;28;20241;-70
2023/03/20 05:06:36;;;;;;;1.13;1.13;;;;;;;5.46;99.10;99902.72;5046838;28;20025;-71
2023/03/20 05:09:02;;;;;;;0.50;0.50;;;;;;;5.59;99.00;99920.81;5046576;28;20041;-73
2023/03/20 05:11:27;;;;;;;0.60;0.60;;;;;;;5.56;99.35;99920.75;5046808;28;20025;-70
2023/03/20 05:13:53;;;;;;;0.60;0.60;;;;;;;5.69;99.11;99944.88;5046489;28;20108;-70
2023/03/20 05:16:18;;;;;;;0.40;0.40;;;;;;;5.70;99.42;99941.44;5046196;28;20049;-71
2023/03/20 05:18:44;;;;;;;1.63;1.52;;;;;;;5.72;99.47;99949.19;5046580;28;20018;-72
2023/03/20 05:21:10;;;;;;;0.57;0.57;;;;;;;5.75;99.32;99939.72;5046319;28;20498;-72
2023/03/20 05:23:35;;;;;;;0.40;0.40;;;;;;;5.73;99.32;99925.13;5044964;28;20029;-73
2023/03/20 05:26:01;;;;;;;0.40;0.40;;;;;;;5.77;99.03;99925.16;5046472;28;20032;-71
2023/03/20 05:28:27;;;;;;;0.70;0.70;;;;;;;5.76;99.15;99923.44;5046236;28;20062;-68
2023/03/20 05:30:52;;;;;;;0.45;0.45;;;;;;;5.75;98.97;99920.88;5046277;28;20026;-69
2023/03/20 05:33:18;;;;;;;0.63;0.63;;;;;;;5.71;99.25;99922.56;5046445;28;20017;-68
2023/03/20 05:35:43;;;;;;;0.50;0.50;;;;;;;5.73;99.48;99922.56;5045242;28;20544;-69
2023/03/20 05:38:09;;;;;;;0.40;0.40;;;;;;;5.75;99.32;99921.69;5045391;28;20112;-70
2023/03/20 05:40:34;;;;;;;1.85;1.75;;;;;;;5.56;99.01;99890.72;5045446;28;20055;-69
2023/03/20 05:43:00;;;;;;;0.40;0.40;;;;;;;5.72;99.08;99910.56;5046007;28;20021;-69
2023/03/20 05:45:25;;;;;;;0.40;0.40;;;;;;;5.72;99.00;99918.28;5061108;28;20112;-70
2023/03/20 05:47:51;;;;;;;0.40;0.40;;;;;;;5.61;99.02;99901.06;5045621;28;20035;-69
2023/03/20 05:50:16;;;;;;;0.43;0.43;;;;;;;5.77;99.07;99924.28;5045990;28;20041;-69
2023/03/20 05:52:42;;;;;;;0.43;0.43;;;;;;;5.56;99.12;99883.00;5046070;28;20112;-68
2023/03/20 05:55:07;;;;;;;0.50;0.50;;;;;;;5.76;99.15;99920.00;5045834;28;20117;-69
2023/03/20 05:57:32;;;;;;;0.40;0.40;;;;;;;5.75;99.00;99919.13;5045917;28;20021;-68
2023/03/20 05:59:58;;;;;;;0.40;0.40;;;;;;;5.66;99.00;99919.09;5045906;28;20068;-68
2023/03/20 06:02:23;;;;;;;0.50;0.50;;;;;;;5.72;99.48;99928.59;5045775;28;20112;-68
2023/03/20 06:04:49;;;;;;;0.50;0.50;;;;;;;5.66;99.23;99919.97;5045583;28;20021;-69
2023/03/20 06:07:14;;;;;;;0.40;0.40;;;;;;;5.64;99.29;99926.81;5061095;28;20022;-70
2023/03/20 06:09:40;;;;;;;0.50;0.50;;;;;;;5.62;99.51;99928.53;5045529;28;20036;-69
2023/03/20 06:12:06;;;;;;;0.40;0.40;;;;;;;5.45;99.45;99902.69;5045556;28;20032;-69
2023/03/20 06:14:31;;;;;;;0.50;0.50;;;;;;;5.53;99.73;99918.19;5045490;28;20110;-68
2023/03/20 06:16:57;;;;;;;0.40;0.40;;;;;;;5.68;99.86;99943.16;5043981;28;20038;-70
2023/03/20 06:19:23;;;;;;;0.43;0.43;;;;;;;5.65;99.93;99941.44;5045614;28;20029;-70
2023/03/20 06:21:49;;;;;;;0.40;0.40;;;;;;;5.70;99.94;99939.72;5045367;28;20045;-69
2023/03/20 06:24:15;;;;;;;0.50;0.50;;;;;;;5.76;100.00;99938.03;5045309;28;20025;-69
2023/03/20 06:26:40;;;;;;;0.40;0.40;;;;;;;5.75;100.00;99932.00;5045488;28;20029;-70
2023/03/20 06:29:06;;;;;;;0.40;0.40;;;;;;;5.79;100.00;99950.91;5044058;28;20085;-70
2023/03/20 06:31:31;;;;;;;0.40;0.40;;;;;;;5.80;100.00;99952.63;5045170;28;20031;-69
2023/03/20 06:33:56;;;;;;;0.40;0.40;;;;;;;5.77;100.00;99943.19;5045142;28;20022;-70
2023/03/20 06:36:22;;;;;;;0.40;0.40;;;;;;;5.79;100.00;99950.91;5045281;28;20040;-71
2023/03/20 06:38:48;;;;;;;0.50;0.50;;;;;;;5.67;100.00;99931.97;5045249;28;20025;-71
2023/03/20 06:41:13;;;;;;;0.50;0.50;;;;;;;5.82;100.00;99950.94;5044529;28;20032;-71
2023/03/20 06:43:39;;;;;;;0.40;0.40;;;;;;;5.75;100.00;99929.44;5044914;28;20017;-71
2023/03/20 06:46:05;;;;;;;0.40;0.40;;;;;;;5.85;100.00;99950.09;5045307;28;20032;-71
2023/03/20 06:48:32;;;;;;;0.40;0.40;;;;;;;5.85;100.00;99950.94;5045243;28;20093;-70
2023/03/20 06:50:57;;;;;;;0.50;0.50;;;;;;;5.84;100.00;99944.06;5045192;28;20029;-70
2023/03/20 06:53:23;;;;;;;0.40;0.40;;;;;;;5.81;100.00;99944.06;5044914;28;20030;-70
2023/03/20 06:55:49;;;;;;;0.40;0.40;;;;;;;5.80;100.00;99947.47;5045002;28;20470;-70
2023/03/20 06:58:15;;;;;;;0.50;0.50;;;;;;;5.58;100.00;99907.06;5044995;28;20029;-70
2023/03/20 07:00:41;;;;;;;0.50;0.50;;;;;;;5.72;100.00;99934.56;5045065;28;20432;-70
2023/03/20 07:03:07;;;;;;;0.40;0.40;;;;;;;5.75;100.00;99939.72;5045209;28;20032;-71
2023/03/20 07:05:32;;;;;;;0.40;0.40;;;;;;;5.79;100.00;99941.47;5044979;28;20033;-70
2023/03/20 07:07:58;;;;;;;0.40;0.40;;;;;;;5.70;100.00;99936.31;5044727;28;20033;-70
2023/03/20 07:10:24;;;;;;;0.40;0.40;;;;;;;5.83;100.00;99947.53;5043754;28;20421;-71
2023/03/20 07:12:49;;;;;;;0.40;0.40;;;;;;;5.85;100.00;99943.22;5044987;28;20026;-71
2023/03/20 07:15:16;;;;;;;0.40;0.40;;;;;;;5.78;100.00;99934.59;5044998;28;20018;-71
2023/03/20 07:17:41;;;;;;;0.50;0.50;;;;;;;5.90;100.00;99932.91;5043379;28;20045;-72
2023/03/20 07:20:08;;;;;;;0.40;0.40;;;;;;;5.91;100.00;99934.66;5043588;28;20037;-71
2023/03/20 07:22:34;;;;;;;0.40;0.40;;;;;;;5.93;100.00;99922.63;5044861;28;20029;-72
2023/03/20 07:25:00;;;;;;;0.40;0.40;;;;;;;5.91;100.00;99914.88;5060068;28;20029;-71
2023/03/20 07:27:25;;;;;;;0.40;0.40;;;;;;;5.99;100.00;99926.94;5045025;28;20029;-71
2023/03/20 07:29:51;;;;;;;0.40;0.40;;;;;;;5.83;100.00;99901.16;5044923;28;20045;-72
2023/03/20 07:32:17;;;;;;;0.40;0.40;;;;;;;6.09;100.00;99935.59;5044940;28;20417;-73
2023/03/20 07:34:43;;;;;;;0.40;0.40;;;;;;;6.14;100.00;99937.31;5044885;28;20083;-72
2023/03/20 07:37:09;;;;;;;0.40;0.40;;;;;;;6.19;100.00;99935.63;5044898;28;20021;-72
2023/03/20 07:39:35;;;;;;;0.50;0.50;;;;;;;6.11;100.00;99920.97;5044589;28;20107;-71
2023/03/20 07:42:00;;;;;;;0.50;0.50;;;;;;;6.22;100.00;99934.75;5044789;28;20017;-71
2023/03/20 07:44:26;;;;;;;0.40;0.40;;;;;;;6.05;99.58;99920.09;5044673;28;20056;-72
2023/03/20 07:46:52;;;;;;;0.40;0.40;;;;;;;6.16;100.00;99927.00;5044730;28;20084;-72
2023/03/20 07:49:18;;;;;;;0.40;0.40;;;;;;;6.24;100.00;99934.75;5044662;28;20080;-72
2023/03/20 07:51:44;;;;;;;0.40;0.40;;;;;;;6.25;100.00;99941.63;5044641;28;20028;-72
2023/03/20 07:54:10;;;;;;;0.50;0.50;;;;;;;6.26;100.00;99939.03;5044407;28;20069;-72
2023/03/20 07:56:35;;;;;;;0.40;0.40;;;;;;;6.32;100.00;99945.94;5044661;28;20546;-72
2023/03/20 07:59:01;;;;;;;0.40;0.40;;;;;;;6.29;99.96;99943.38;5045908;28;20025;-73
2023/03/20 08:01:26;;;;;;;0.50;0.50;;;;;;;6.11;99.71;99913.25;5048259;28;20075;-73
2023/03/20 08:03:51;;;;;;;0.40;0.40;;;;;;;6.20;99.52;99942.50;5048050;28;20033;-72
2023/03/20 08:06:17;;;;;;;0.40;0.40;;;;;;;6.07;99.60;99925.28;5048186;28;20033;-72
2023/03/20 08:08:43;;;;;;;0.40;0.40;;;;;;;6.08;99.76;99937.31;5047853;28;20115;-72
2023/03/20 08:11:09;;;;;;;0.40;0.40;;;;;;;6.14;99.51;99950.22;5063545;28;20026;-71
2023/03/20 08:13:35;;;;;;;0.40;0.40;;;;;;;6.10;99.74;99947.63;5063251;28;20025;-70
2023/03/20 08:16:00;;;;;;;0.40;0.40;;;;;;;6.04;99.54;99946.75;5047697;28;20057;-71
2023/03/20 08:18:26;;;;;;;0.40;0.40;;;;;;;5.95;99.42;99947.56;5047958;28;20053;-71
2023/03/20 08:20:51;;;;;;;0.40;0.40;;;;;;;6.03;99.58;99973.34;5047842;28;20085;-70
2023/03/20 08:23:16;;;;;;;0.50;0.50;;;;;;;5.90;99.51;99954.41;5047546;28;20045;-70
2023/03/20 08:25:47;;;;;;;0.40;0.40;;;;;;;5.91;99.41;99966.41;5047735;28;20477;-69
2023/03/20 08:28:12;;;;;;;0.40;0.40;;;;;;;5.94;99.71;99966.44;5047801;28;20029;-69
2023/03/20 08:30:38;;;;;;;0.40;0.40;;;;;;;5.99;99.92;99965.59;5046346;28;20028;-69
2023/03/20 08:33:03;;;;;;;0.40;0.40;;;;;;;5.95;99.85;99963.03;5047677;28;20116;-69
2023/03/20 08:35:29;;;;;;;0.40;0.40;;;;;;;5.95;99.81;99973.31;5046253;28;20026;-70
2023/03/20 08:37:54;;;;;;;0.50;0.50;;;;;;;6.00;100.00;99980.19;5047398;28;20033;-70
2023/03/20 08:40:20;;;;;;;0.50;0.50;;;;;;;6.02;100.00;99973.34;5047426;28;20073;-71
2023/03/20 08:42:45;;;;;;;0.40;0.40;;;;;;;5.93;100.00;99950.97;5046169;28;20397;-72
2023/03/20 08:45:11;;;;;;;1.35;1.35;;;;;;;6.13;100.00;99976.84;5047381;28;20052;-73
2023/03/20 08:47:36;;;;;;;0.40;0.40;;;;;;;6.19;100.00;99965.69;5047505;28;20355;-75
2023/03/20 08:50:02;;;;;;;0.40;0.40;;;;;;;6.09;100.00;99954.47;5046071;28;20048;-75
2023/03/20 08:52:27;;;;;;;0.40;0.40;;;;;;;6.13;100.00;99966.53;5047412;28;20078;-75
2023/03/20 08:54:53;;;;;;;0.40;0.40;;;;;;;6.16;100.00;99976.00;5047219;28;20033;-73
2023/03/20 08:57:18;;;;;;;0.40;0.40;;;;;;;6.13;100.00;99978.56;5047297;28;20045;-74
2023/03/20 08:59:44;;;;;;;0.40;0.40;;;;;;;6.13;99.97;99983.72;5047063;28;20028;-73
2023/03/20 09:02:11;;;;;;;0.50;0.50;;;;;;;6.12;100.00;99985.41;5047064;28;20533;-74
2023/03/20 09:04:36;;;;;;;0.50;0.50;;;;;;;6.06;99.76;99981.13;5047032;28;20052;-73
2023/03/20 09:07:02;;;;;;;0.50;0.50;;;;;;;6.01;99.70;99987.06;5047565;28;20025;-75
2023/03/20 09:09:28;;;;;;;0.47;0.47;;;;;;;5.87;99.83;99967.28;5046978;28;20025;-74
2023/03/20 09:11:55;;;;;;;0.40;0.40;;;;;;;5.97;99.67;99975.91;5046245;28;20025;-74
2023/03/20 09:14:22;;;;;;;0.50;0.50;;;;;;;5.98;99.68;99981.91;5046767;28;20026;-72
2023/03/20 09:16:47;;;;;;;0.50;0.50;;;;;;;5.97;99.90;99980.19;5045132;28;20099;-71
2023/03/20 09:19:13;;;;;;;0.50;0.50;;;;;;;5.98;99.80;99987.06;5046856;28;20527;-70
2023/03/20 09:21:39;;;;;;;0.43;0.43;;;;;;;5.83;99.82;99960.41;5046500;28;20459;-71
2023/03/20 09:24:04;;;;;;;0.60;0.60;;;;;;;5.96;99.94;99989.63;5046462;28;20021;-70
2023/03/20 09:26:30;;;;;;;0.40;0.40;;;;;;;5.95;99.78;99983.63;5046504;28;20021;-70
2023/03/20 09:28:55;;;;;;;0.40;0.40;;;;;;;5.98;99.94;99981.91;5046549;28;20026;-69
2023/03/20 09:31:21;;;;;;;0.40;0.40;;;;;;;5.91;99.76;99965.56;5046438;28;20105;-70
2023/03/20 09:33:47;;;;;;;0.50;0.50;;;;;;;6.09;99.88;99988.00;5044979;28;20092;-70
2023/03/20 09:36:14;;;;;;;0.40;0.40;;;;;;;6.10;99.84;99982.00;5046336;28;20029;-69
2023/03/20 09:38:41;;;;;;;0.40;0.40;;;;;;;6.11;100.00;99981.13;5046316;28;20021;-70
2023/03/20 09:41:18;;;;;;;0.40;0.40;;;;;;;6.10;99.92;99974.25;5046148;28;20081;-70
2023/03/20 09:44:04;;;;;;;0.40;0.40;;;;;;;6.16;99.86;99992.31;5046322;28;20032;-72
2023/03/20 09:46:38;;;;;;;0.40;0.40;;;;;;;6.15;99.86;99982.84;5061506;28;20025;-73
2023/03/20 09:49:35;;;;;;;0.40;0.40;;;;;;;6.18;100.00;99987.19;5046028;28;20029;-73
2023/03/20 09:52:13;;;;;;;0.50;0.50;;;;;;;6.23;99.93;99979.44;5046029;28;20048;-72
2023/03/20 09:54:42;;;;;;;0.40;0.40;;;;;;;6.31;100.00;99975.19;5045809;28;20026;-72
2023/03/20 09:57:22;;;;;;;0.40;0.40;;;;;;;6.31;100.00;99957.13;5045883;28;20039;-72
2023/03/20 09:59:52;;;;;;;0.40;0.40;;;;;;;6.35;100.00;99950.25;5045867;28;20044;-72
2023/03/20 10:02:24;;;;;;;0.40;0.40;;;;;;;6.31;99.91;99951.97;5061292;28;20025;-72
2023/03/20 10:04:54;;;;;;;;;;;;;;;6.52;99.98;99976.03;5046335;28;20032;-72
2023/03/20 10:07:20;;;;;;;0.40;0.40;;;;;;;6.55;100.00;99971.75;5045943;28;19909;-73
2023/03/20 10:09:45;;;;;;;0.50;0.50;;;;;;;6.59;100.00;99977.78;5045798;28;20029;-72
2023/03/20 10:12:31;;;;;;;0.40;0.40;;;;;;;6.66;100.00;99961.44;5045754;28;20095;-73
2023/03/20 10:15:35;;;;;;;0.50;0.50;;;;;;;6.88;100.00;99965.75;5045894;28;20481;-71
2023/03/20 10:18:13;;;;;;;0.40;0.40;;;;;;;6.99;100.00;99965.75;5045273;28;20049;-72
2023/03/20 10:20:49;;;;;;;0.40;0.40;;;;;;;6.90;100.00;99951.97;5061019;28;20389;-72
2023/03/20 10:23:30;;;;;;;0.50;0.50;;;;;;;7.05;100.00;99970.91;5043964;28;20021;-69
2023/03/20 10:26:02;;;;;;;0.40;0.40;;;;;;;7.06;100.00;99975.22;5045700;28;20029;-70
2023/03/20 10:28:54;;;;;;;0.50;0.50;;;;;;;7.09;100.00;99970.06;5044366;28;20032;-70
2023/03/20 10:31:59;;;;;;;0.40;0.40;;;;;;;7.14;100.00;99959.72;5045505;28;20033;-70
2023/03/20 10:34:31;;;;;;;0.40;0.40;;;;;;;7.21;100.00;99968.31;5044978;28;20034;-70
2023/03/20 10:37:02;;;;;;;0.40;0.40;;;;;;;7.13;99.51;99974.34;5045428;28;20021;-70
2023/03/20 10:40:03;;;;;;;0.50;0.50;;;;;;;7.10;99.73;99979.50;5045326;28;20030;-70
2023/03/20 10:42:32;;;;;;;0.40;0.40;;;;;;;6.98;99.71;99962.31;5045490;28;20025;-70
2023/03/20 10:45:05;;;;;;;0.40;0.40;;;;;;;6.98;99.42;99982.94;5045255;28;20052;-70
2023/03/20 10:47:35;;;;;;;0.40;0.40;;;;;;;6.76;99.30;99953.72;5045366;28;20051;-70
2023/03/20 10:50:06;;;;;;;0.40;0.40;;;;;;;6.82;99.54;99958.91;5045373;28;20405;-71
2023/03/20 10:52:36;;;;;;;0.50;0.50;;;;;;;6.90;99.12;99970.06;5045361;28;20044;-69
2023/03/20 10:55:31;;;;;;;0.40;0.40;;;;;;;6.88;99.41;99982.13;5045243;28;20025;-70
2023/03/20 10:58:04;;;;;;;0.40;0.40;;;;;;;6.88;99.38;99973.50;5060583;28;20036;-71
2023/03/20 11:00:30;;;;;;;0.40;0.40;;;;;;;6.72;99.36;99952.88;5045117;28;20036;-70
2023/03/20 11:02:55;;;;;;;0.40;0.40;;;;;;;6.82;99.15;99974.38;5045031;28;20033;-70
2023/03/20 11:05:35;;;;;;;0.40;0.40;;;;;;;6.69;99.12;99960.59;5045078;28;20018;-70
2023/03/20 11:08:12;;;;;;;0.50;0.50;;;;;;;6.76;99.09;99971.75;5043737;28;20033;-71
2023/03/20 11:10:40;;;;;;;0.40;0.40;;;;;;;6.80;99.49;99964.06;5060598;28;20030;-71
2023/03/20 11:13:22;;;;;;;0.40;0.40;;;;;;;6.86;99.54;99962.31;5045068;28;20037;-70
2023/03/20 11:15:50;;;;;;;0.50;0.50;;;;;;;6.93;99.38;99958.88;5045179;28;20029;-71
2023/03/20 11:18:16;;;;;;;0.50;0.50;;;;;;;7.03;100.00;99960.59;5044907;28;20115;-70
2023/03/20 11:20:52;;;;;;;0.40;0.40;;;;;;;7.21;100.00;99960.56;5043548;28;20022;-70
2023/03/20 11:23:34;;;;;;;0.40;0.40;;;;;;;7.30;100.00;99957.97;5060073;28;20149;-69
2023/03/20 11:26:10;;;;;;;0.50;0.50;;;;;;;7.36;100.00;99950.22;5044914;28;20017;-70
2023/03/20 11:28:40;;;;;;;0.40;0.40;;;;;;;7.43;100.00;99959.66;5044800;28;20085;-69
2023/03/20 11:31:17;;;;;;;0.40;0.40;;;;;;;7.53;99.93;99959.63;5060107;28;20018;-70
2023/03/20 11:33:45;;;;;;;0.50;0.50;;;;;;;7.54;100.00;99951.03;5045821;28;20028;-69
2023/03/20 11:36:21;;;;;;;0.40;0.40;;;;;;;7.53;99.65;99952.75;5048491;28;20048;-70
2023/03/20 11:38:49;;;;;;;0.50;0.50;;;;;;;7.50;99.49;99957.91;5048531;28;20497;-70
2023/03/20 11:41:32;;;;;;;0.50;0.50;;;;;;;7.42;99.81;99950.19;5048476;28;20029;-70
2023/03/20 11:43:58;;;;;;;0.40;0.40;;;;;;;7.49;99.26;99963.94;5048637;28;20064;-70
2023/03/20 11:46:24;;;;;;;0.50;0.50;;;;;;;7.44;99.50;99963.94;5048459;28;20021;-70
2023/03/20 11:49:19;;;;;;;0.45;0.45;;;;;;;7.22;99.33;99937.31;5063863;28;20025;-69
2023/03/20 11:51:45;;;;;;;0.40;0.40;;;;;;;7.42;99.35;99973.44;5063669;28;20028;-70